Terminal Aerodrome Forecast
Issued by NWS Blacksburg, VA

Current Version | Previous Version | Graphics & Text | Print | Product List | Glossary On
Versions: 1 2 3 4 5 6 7 8 9 10 11 12 13 14 15 16 17 18 19 20 21 22 23 24 25 26 27 28 29 30
000
FTUS41 KRNK 251926 AAA
TAFBLF
TAF AMD
KBLF 251926Z 2519/2618 25012G20KT P6SM -SHRA OVC010
     FM260200 27015G23KT P6SM OVC008
     FM260500 28013G21KT P6SM VCSH BKN010
     FM260800 27013KT P6SM BKN008
     FM261500 29013KT P6SM SCT030=

USA.gov is the U.S. government's official web portal to all federal, state and local government web resources and services.